sensor_id;sensor_type;location;lat;lon;timestamp;P1;durP1;ratioP1;P2;durP2;ratioP2
54454;SDS011;40364;52.270;10.546;2023-11-21T00:00:29;10.98;;;4.60;;
54454;SDS011;40364;52.270;10.546;2023-11-21T00:02:57;14.32;;;4.85;;
54454;SDS011;40364;52.270;10.546;2023-11-21T00:05:24;15.38;;;5.05;;
54454;SDS011;40364;52.270;10.546;2023-11-21T00:07:50;9.27;;;4.22;;
54454;SDS011;40364;52.270;10.546;2023-11-21T00:10:19;15.57;;;5.30;;
54454;SDS011;40364;52.270;10.546;2023-11-21T00:12:46;15.07;;;4.68;;
54454;SDS011;40364;52.270;10.546;2023-11-21T00:15:13;9.15;;;4.72;;
54454;SDS011;40364;52.270;10.546;2023-11-21T00:17:40;9.02;;;4.22;;
54454;SDS011;40364;52.270;10.546;2023-11-21T00:20:09;15.27;;;5.53;;
54454;SDS011;40364;52.270;10.546;2023-11-21T00:22:38;13.82;;;4.80;;
54454;SDS011;40364;52.270;10.546;2023-11-21T00:25:05;16.45;;;4.88;;
54454;SDS011;40364;52.270;10.546;2023-11-21T00:27:34;19.75;;;5.53;;
54454;SDS011;40364;52.270;10.546;2023-11-21T00:30:01;13.85;;;5.13;;
54454;SDS011;40364;52.270;10.546;2023-11-21T00:32:29;16.92;;;5.15;;
54454;SDS011;40364;52.270;10.546;2023-11-21T00:34:56;21.42;;;5.95;;
54454;SDS011;40364;52.270;10.546;2023-11-21T00:37:25;17.00;;;5.05;;
54454;SDS011;40364;52.270;10.546;2023-11-21T00:39:52;16.13;;;5.35;;
54454;SDS011;40364;52.270;10.546;2023-11-21T00:42:19;19.73;;;5.35;;
54454;SDS011;40364;52.270;10.546;2023-11-21T00:44:46;19.63;;;5.60;;
54454;SDS011;40364;52.270;10.546;2023-11-21T00:47:13;14.27;;;5.53;;
54454;SDS011;40364;52.270;10.546;2023-11-21T00:49:40;20.17;;;5.80;;
54454;SDS011;40364;52.270;10.546;2023-11-21T00:52:07;16.50;;;6.10;;
54454;SDS011;40364;52.270;10.546;2023-11-21T00:54:34;14.15;;;5.18;;
54454;SDS011;40364;52.270;10.546;2023-11-21T00:57:02;15.52;;;6.32;;
54454;SDS011;40364;52.270;10.546;2023-11-21T00:59:29;20.27;;;6.55;;
54454;SDS011;40364;52.270;10.546;2023-11-21T01:01:55;18.40;;;6.43;;
54454;SDS011;40364;52.270;10.546;2023-11-21T01:04:25;16.95;;;6.20;;
54454;SDS011;40364;52.270;10.546;2023-11-21T01:06:52;20.00;;;6.72;;
54454;SDS011;40364;52.270;10.546;2023-11-21T01:09:18;22.65;;;6.90;;
54454;SDS011;40364;52.270;10.546;2023-11-21T01:11:49;19.38;;;6.47;;
54454;SDS011;40364;52.270;10.546;2023-11-21T01:14:17;19.67;;;7.25;;
54454;SDS011;40364;52.270;10.546;2023-11-21T01:16:44;23.58;;;6.15;;
54454;SDS011;40364;52.270;10.546;2023-11-21T01:19:11;18.30;;;6.68;;
54454;SDS011;40364;52.270;10.546;2023-11-21T01:21:38;21.10;;;7.15;;
54454;SDS011;40364;52.270;10.546;2023-11-21T01:24:05;19.42;;;7.10;;
54454;SDS011;40364;52.270;10.546;2023-11-21T01:26:32;14.88;;;6.65;;
54454;SDS011;40364;52.270;10.546;2023-11-21T01:29:00;19.80;;;8.23;;
54454;SDS011;40364;52.270;10.546;2023-11-21T01:31:27;20.33;;;7.30;;
54454;SDS011;40364;52.270;10.546;2023-11-21T01:33:54;23.08;;;7.05;;
54454;SDS011;40364;52.270;10.546;2023-11-21T01:36:21;18.90;;;7.07;;
54454;SDS011;40364;52.270;10.546;2023-11-21T01:38:48;17.90;;;7.95;;
54454;SDS011;40364;52.270;10.546;2023-11-21T01:41:15;20.88;;;7.95;;
54454;SDS011;40364;52.270;10.546;2023-11-21T01:43:41;17.45;;;7.40;;
54454;SDS011;40364;52.270;10.546;2023-11-21T01:46:09;17.40;;;7.15;;
54454;SDS011;40364;52.270;10.546;2023-11-21T01:48:36;25.63;;;8.45;;
54454;SDS011;40364;52.270;10.546;2023-11-21T01:51:03;19.25;;;7.65;;
54454;SDS011;40364;52.270;10.546;2023-11-21T01:53:30;20.85;;;7.20;;
54454;SDS011;40364;52.270;10.546;2023-11-21T01:55:57;21.55;;;8.68;;
54454;SDS011;40364;52.270;10.546;2023-11-21T01:58:25;19.70;;;7.63;;
54454;SDS011;40364;52.270;10.546;2023-11-21T02:00:52;19.95;;;7.10;;
54454;SDS011;40364;52.270;10.546;2023-11-21T02:03:21;17.35;;;6.72;;
54454;SDS011;40364;52.270;10.546;2023-11-21T02:05:48;17.80;;;6.78;;
54454;SDS011;40364;52.270;10.546;2023-11-21T02:08:15;22.02;;;7.97;;
54454;SDS011;40364;52.270;10.546;2023-11-21T02:10:41;17.63;;;7.60;;
54454;SDS011;40364;52.270;10.546;2023-11-21T02:13:08;23.10;;;7.63;;
54454;SDS011;40364;52.270;10.546;2023-11-21T02:15:35;20.75;;;7.63;;
54454;SDS011;40364;52.270;10.546;2023-11-21T02:18:03;21.98;;;8.15;;
54454;SDS011;40364;52.270;10.546;2023-11-21T02:20:32;20.45;;;8.10;;
54454;SDS011;40364;52.270;10.546;2023-11-21T02:23:01;22.05;;;8.95;;
54454;SDS011;40364;52.270;10.546;2023-11-21T02:25:29;27.13;;;8.43;;
54454;SDS011;40364;52.270;10.546;2023-11-21T02:27:57;23.23;;;9.68;;
54454;SDS011;40364;52.270;10.546;2023-11-21T02:30:25;18.90;;;9.75;;
54454;SDS011;40364;52.270;10.546;2023-11-21T02:32:53;20.40;;;7.22;;
54454;SDS011;40364;52.270;10.546;2023-11-21T02:35:20;24.73;;;8.75;;
54454;SDS011;40364;52.270;10.546;2023-11-21T02:37:47;22.27;;;8.05;;
54454;SDS011;40364;52.270;10.546;2023-11-21T02:40:15;17.20;;;7.88;;
54454;SDS011;40364;52.270;10.546;2023-11-21T02:42:43;17.95;;;8.18;;
54454;SDS011;40364;52.270;10.546;2023-11-21T02:45:10;27.30;;;8.13;;
54454;SDS011;40364;52.270;10.546;2023-11-21T02:47:38;19.25;;;8.50;;
54454;SDS011;40364;52.270;10.546;2023-11-21T02:50:05;28.23;;;8.90;;
54454;SDS011;40364;52.270;10.546;2023-11-21T02:52:33;27.23;;;8.55;;
54454;SDS011;40364;52.270;10.546;2023-11-21T02:55:00;26.20;;;8.55;;
54454;SDS011;40364;52.270;10.546;2023-11-21T02:57:28;18.90;;;8.40;;
54454;SDS011;40364;52.270;10.546;2023-11-21T02:59:55;25.88;;;8.75;;
54454;SDS011;40364;52.270;10.546;2023-11-21T03:02:22;20.23;;;8.05;;
54454;SDS011;40364;52.270;10.546;2023-11-21T03:04:49;29.08;;;8.05;;
54454;SDS011;40364;52.270;10.546;2023-11-21T03:07:15;17.13;;;8.00;;
54454;SDS011;40364;52.270;10.546;2023-11-21T03:09:44;23.05;;;8.55;;
54454;SDS011;40364;52.270;10.546;2023-11-21T03:12:10;27.88;;;8.45;;
54454;SDS011;40364;52.270;10.546;2023-11-21T03:14:39;24.52;;;8.52;;
54454;SDS011;40364;52.270;10.546;2023-11-21T03:17:06;22.55;;;8.52;;
54454;SDS011;40364;52.270;10.546;2023-11-21T03:19:33;21.50;;;9.15;;
54454;SDS011;40364;52.270;10.546;2023-11-21T03:22:00;26.42;;;8.75;;
54454;SDS011;40364;52.270;10.546;2023-11-21T03:24:26;22.25;;;9.18;;
54454;SDS011;40364;52.270;10.546;2023-11-21T03:26:53;22.90;;;9.30;;
54454;SDS011;40364;52.270;10.546;2023-11-21T03:29:19;24.40;;;9.20;;
54454;SDS011;40364;52.270;10.546;2023-11-21T03:31:48;22.20;;;9.90;;
54454;SDS011;40364;52.270;10.546;2023-11-21T03:34:15;26.77;;;8.27;;
54454;SDS011;40364;52.270;10.546;2023-11-21T03:36:46;23.02;;;9.35;;
54454;SDS011;40364;52.270;10.546;2023-11-21T03:39:12;24.67;;;10.10;;
54454;SDS011;40364;52.270;10.546;2023-11-21T03:41:39;29.45;;;9.95;;
54454;SDS011;40364;52.270;10.546;2023-11-21T03:44:06;26.98;;;10.35;;
54454;SDS011;40364;52.270;10.546;2023-11-21T03:46:32;27.35;;;10.40;;
54454;SDS011;40364;52.270;10.546;2023-11-21T03:49:01;28.67;;;10.32;;
54454;SDS011;40364;52.270;10.546;2023-11-21T03:51:27;26.98;;;9.77;;
54454;SDS011;40364;52.270;10.546;2023-11-21T03:53:54;23.25;;;10.10;;
54454;SDS011;40364;52.270;10.546;2023-11-21T03:56:21;26.40;;;9.60;;
54454;SDS011;40364;52.270;10.546;2023-11-21T03:58:48;31.35;;;10.68;;
54454;SDS011;40364;52.270;10.546;2023-11-21T04:01:19;23.23;;;10.40;;
54454;SDS011;40364;52.270;10.546;2023-11-21T04:03:47;31.90;;;10.55;;
54454;SDS011;40364;52.270;10.546;2023-11-21T04:06:15;33.72;;;11.02;;
54454;SDS011;40364;52.270;10.546;2023-11-21T04:08:42;30.42;;;10.38;;
54454;SDS011;40364;52.270;10.546;2023-11-21T04:11:09;22.63;;;9.70;;
54454;SDS011;40364;52.270;10.546;2023-11-21T04:13:36;24.23;;;10.13;;
54454;SDS011;40364;52.270;10.546;2023-11-21T04:16:03;29.98;;;10.65;;
54454;SDS011;40364;52.270;10.546;2023-11-21T04:18:31;28.77;;;9.68;;
54454;SDS011;40364;52.270;10.546;2023-11-21T04:20:58;27.33;;;10.15;;
54454;SDS011;40364;52.270;10.546;2023-11-21T04:23:27;25.45;;;10.02;;
54454;SDS011;40364;52.270;10.546;2023-11-21T04:25:55;29.38;;;10.55;;
54454;SDS011;40364;52.270;10.546;2023-11-21T04:28:22;23.70;;;9.80;;
54454;SDS011;40364;52.270;10.546;2023-11-21T04:30:49;25.48;;;10.25;;
54454;SDS011;40364;52.270;10.546;2023-11-21T04:33:16;26.83;;;10.27;;
54454;SDS011;40364;52.270;10.546;2023-11-21T04:35:42;24.15;;;9.80;;
54454;SDS011;40364;52.270;10.546;2023-11-21T04:38:09;23.95;;;10.52;;
54454;SDS011;40364;52.270;10.546;2023-11-21T04:40:37;19.17;;;9.98;;
54454;SDS011;40364;52.270;10.546;2023-11-21T04:43:04;33.70;;;10.60;;
54454;SDS011;40364;52.270;10.546;2023-11-21T04:45:31;23.00;;;9.98;;
54454;SDS011;40364;52.270;10.546;2023-11-21T04:47:57;23.92;;;9.88;;
54454;SDS011;40364;52.270;10.546;2023-11-21T04:50:24;27.05;;;10.73;;
54454;SDS011;40364;52.270;10.546;2023-11-21T04:52:52;28.05;;;9.68;;
54454;SDS011;40364;52.270;10.546;2023-11-21T04:55:18;31.75;;;11.57;;
54454;SDS011;40364;52.270;10.546;2023-11-21T04:57:49;23.67;;;10.48;;
54454;SDS011;40364;52.270;10.546;2023-11-21T05:00:16;28.52;;;10.80;;
54454;SDS011;40364;52.270;10.546;2023-11-21T05:02:43;23.90;;;10.57;;
54454;SDS011;40364;52.270;10.546;2023-11-21T05:05:10;28.88;;;10.93;;
54454;SDS011;40364;52.270;10.546;2023-11-21T05:07:38;27.15;;;11.30;;
54454;SDS011;40364;52.270;10.546;2023-11-21T05:10:05;26.75;;;10.88;;
54454;SDS011;40364;52.270;10.546;2023-11-21T05:12:37;29.08;;;11.32;;
54454;SDS011;40364;52.270;10.546;2023-11-21T05:15:06;28.40;;;11.45;;
54454;SDS011;40364;52.270;10.546;2023-11-21T05:17:34;32.33;;;11.57;;
54454;SDS011;40364;52.270;10.546;2023-11-21T05:20:01;29.08;;;11.60;;
54454;SDS011;40364;52.270;10.546;2023-11-21T05:22:33;27.83;;;10.65;;
54454;SDS011;40364;52.270;10.546;2023-11-21T05:25:00;24.92;;;11.35;;
54454;SDS011;40364;52.270;10.546;2023-11-21T05:27:28;31.17;;;12.30;;
54454;SDS011;40364;52.270;10.546;2023-11-21T05:29:54;27.02;;;11.52;;
54454;SDS011;40364;52.270;10.546;2023-11-21T05:32:22;26.27;;;11.80;;
54454;SDS011;40364;52.270;10.546;2023-11-21T05:34:49;24.70;;;11.20;;
54454;SDS011;40364;52.270;10.546;2023-11-21T05:40:16;23.65;;;11.60;;
54454;SDS011;40364;52.270;10.546;2023-11-21T05:42:43;30.02;;;11.05;;
54454;SDS011;40364;52.270;10.546;2023-11-21T05:45:10;26.65;;;11.65;;
54454;SDS011;40364;52.270;10.546;2023-11-21T05:47:38;26.52;;;11.30;;
54454;SDS011;40364;52.270;10.546;2023-11-21T05:50:07;27.60;;;11.05;;
54454;SDS011;40364;52.270;10.546;2023-11-21T05:52:37;21.98;;;10.60;;
54454;SDS011;40364;52.270;10.546;2023-11-21T05:55:04;30.92;;;10.90;;
54454;SDS011;40364;52.270;10.546;2023-11-21T05:57:32;22.90;;;10.60;;
54454;SDS011;40364;52.270;10.546;2023-11-21T06:00:01;20.02;;;8.88;;
54454;SDS011;40364;52.270;10.546;2023-11-21T06:02:36;22.90;;;9.50;;
54454;SDS011;40364;52.270;10.546;2023-11-21T06:05:08;19.55;;;8.55;;
54454;SDS011;40364;52.270;10.546;2023-11-21T06:07:35;19.88;;;9.60;;
54454;SDS011;40364;52.270;10.546;2023-11-21T06:10:04;22.52;;;9.20;;
54454;SDS011;40364;52.270;10.546;2023-11-21T06:12:34;19.25;;;7.85;;
54454;SDS011;40364;52.270;10.546;2023-11-21T06:15:01;20.42;;;7.50;;
54454;SDS011;40364;52.270;10.546;2023-11-21T06:17:30;12.95;;;6.28;;
54454;SDS011;40364;52.270;10.546;2023-11-21T06:20:04;14.77;;;6.55;;
54454;SDS011;40364;52.270;10.546;2023-11-21T06:23:05;10.98;;;3.95;;
54454;SDS011;40364;52.270;10.546;2023-11-21T06:25:32;5.22;;;2.97;;
54454;SDS011;40364;52.270;10.546;2023-11-21T06:28:01;5.53;;;2.78;;
54454;SDS011;40364;52.270;10.546;2023-11-21T06:30:28;5.03;;;1.95;;
54454;SDS011;40364;52.270;10.546;2023-11-21T06:32:55;4.22;;;1.88;;
54454;SDS011;40364;52.270;10.546;2023-11-21T06:35:23;10.20;;;1.90;;
54454;SDS011;40364;52.270;10.546;2023-11-21T06:37:50;3.30;;;1.67;;
54454;SDS011;40364;52.270;10.546;2023-11-21T06:40:17;3.30;;;1.90;;
54454;SDS011;40364;52.270;10.546;2023-11-21T06:42:44;2.38;;;1.63;;
54454;SDS011;40364;52.270;10.546;2023-11-21T06:45:12;3.17;;;1.90;;
54454;SDS011;40364;52.270;10.546;2023-11-21T06:47:40;4.40;;;2.40;;
54454;SDS011;40364;52.270;10.546;2023-11-21T06:50:06;6.15;;;3.22;;
54454;SDS011;40364;52.270;10.546;2023-11-21T06:52:35;6.03;;;3.63;;
54454;SDS011;40364;52.270;10.546;2023-11-21T06:55:02;6.53;;;3.58;;
54454;SDS011;40364;52.270;10.546;2023-11-21T06:57:30;8.50;;;4.25;;
54454;SDS011;40364;52.270;10.546;2023-11-21T06:59:58;9.20;;;3.58;;
54454;SDS011;40364;52.270;10.546;2023-11-21T07:02:25;11.13;;;5.18;;
54454;SDS011;40364;52.270;10.546;2023-11-21T07:04:53;12.52;;;5.45;;
54454;SDS011;40364;52.270;10.546;2023-11-21T07:07:19;12.55;;;5.63;;
54454;SDS011;40364;52.270;10.546;2023-11-21T07:09:47;13.70;;;5.72;;
54454;SDS011;40364;52.270;10.546;2023-11-21T07:12:14;14.23;;;6.22;;
54454;SDS011;40364;52.270;10.546;2023-11-21T07:14:41;12.30;;;5.20;;
54454;SDS011;40364;52.270;10.546;2023-11-21T07:17:09;12.45;;;6.78;;
54454;SDS011;40364;52.270;10.546;2023-11-21T07:19:37;12.40;;;6.50;;
54454;SDS011;40364;52.270;10.546;2023-11-21T07:22:03;15.38;;;7.40;;
54454;SDS011;40364;52.270;10.546;2023-11-21T07:24:31;14.68;;;6.90;;
54454;SDS011;40364;52.270;10.546;2023-11-21T07:26:59;13.80;;;6.68;;
54454;SDS011;40364;52.270;10.546;2023-11-21T07:29:26;13.82;;;6.43;;
54454;SDS011;40364;52.270;10.546;2023-11-21T07:31:54;12.68;;;6.25;;
54454;SDS011;40364;52.270;10.546;2023-11-21T07:34:21;13.63;;;6.85;;
54454;SDS011;40364;52.270;10.546;2023-11-21T07:36:48;17.58;;;6.47;;
54454;SDS011;40364;52.270;10.546;2023-11-21T07:39:14;15.70;;;6.82;;
54454;SDS011;40364;52.270;10.546;2023-11-21T07:41:41;14.93;;;6.53;;
54454;SDS011;40364;52.270;10.546;2023-11-21T07:44:15;13.48;;;6.18;;
54454;SDS011;40364;52.270;10.546;2023-11-21T07:46:43;16.48;;;5.57;;
54454;SDS011;40364;52.270;10.546;2023-11-21T07:49:10;11.57;;;5.28;;
54454;SDS011;40364;52.270;10.546;2023-11-21T07:51:37;9.35;;;5.38;;
54454;SDS011;40364;52.270;10.546;2023-11-21T07:54:03;11.45;;;5.88;;
54454;SDS011;40364;52.270;10.546;2023-11-21T07:56:30;14.07;;;5.70;;
54454;SDS011;40364;52.270;10.546;2023-11-21T07:58:57;11.38;;;4.82;;
54454;SDS011;40364;52.270;10.546;2023-11-21T08:01:25;14.43;;;5.93;;
54454;SDS011;40364;52.270;10.546;2023-11-21T08:03:53;13.10;;;6.38;;
54454;SDS011;40364;52.270;10.546;2023-11-21T08:06:22;11.35;;;6.07;;
54454;SDS011;40364;52.270;10.546;2023-11-21T08:08:49;11.25;;;6.00;;
54454;SDS011;40364;52.270;10.546;2023-11-21T08:11:15;14.02;;;6.50;;
54454;SDS011;40364;52.270;10.546;2023-11-21T08:13:42;16.50;;;7.00;;
54454;SDS011;40364;52.270;10.546;2023-11-21T08:16:09;15.73;;;6.78;;
54454;SDS011;40364;52.270;10.546;2023-11-21T08:18:37;15.23;;;6.50;;
54454;SDS011;40364;52.270;10.546;2023-11-21T08:21:05;14.98;;;7.03;;
54454;SDS011;40364;52.270;10.546;2023-11-21T08:23:33;12.38;;;6.65;;
54454;SDS011;40364;52.270;10.546;2023-11-21T08:25:59;12.80;;;5.82;;
54454;SDS011;40364;52.270;10.546;2023-11-21T08:28:28;12.90;;;6.63;;
54454;SDS011;40364;52.270;10.546;2023-11-21T08:30:55;13.35;;;6.00;;
54454;SDS011;40364;52.270;10.546;2023-11-21T08:33:22;12.98;;;6.55;;
54454;SDS011;40364;52.270;10.546;2023-11-21T08:35:50;15.05;;;6.85;;
54454;SDS011;40364;52.270;10.546;2023-11-21T08:38:16;14.65;;;6.38;;
54454;SDS011;40364;52.270;10.546;2023-11-21T08:40:43;15.95;;;6.70;;
54454;SDS011;40364;52.270;10.546;2023-11-21T08:43:10;13.05;;;6.00;;
54454;SDS011;40364;52.270;10.546;2023-11-21T08:45:37;17.50;;;7.07;;
54454;SDS011;40364;52.270;10.546;2023-11-21T08:48:04;13.48;;;5.63;;
54454;SDS011;40364;52.270;10.546;2023-11-21T08:50:31;10.30;;;5.57;;
54454;SDS011;40364;52.270;10.546;2023-11-21T08:52:59;9.93;;;5.35;;
54454;SDS011;40364;52.270;10.546;2023-11-21T08:55:25;10.48;;;5.13;;
54454;SDS011;40364;52.270;10.546;2023-11-21T08:57:53;11.02;;;5.70;;
54454;SDS011;40364;52.270;10.546;2023-11-21T09:00:20;10.30;;;5.43;;
54454;SDS011;40364;52.270;10.546;2023-11-21T09:02:47;9.07;;;4.22;;
54454;SDS011;40364;52.270;10.546;2023-11-21T09:05:14;9.68;;;4.47;;
54454;SDS011;40364;52.270;10.546;2023-11-21T09:07:41;7.45;;;3.92;;
54454;SDS011;40364;52.270;10.546;2023-11-21T09:10:10;8.18;;;4.47;;
54454;SDS011;40364;52.270;10.546;2023-11-21T09:12:37;8.63;;;4.38;;
54454;SDS011;40364;52.270;10.546;2023-11-21T09:15:04;7.95;;;4.32;;
54454;SDS011;40364;52.270;10.546;2023-11-21T09:17:31;7.75;;;3.97;;
54454;SDS011;40364;52.270;10.546;2023-11-21T09:19:59;6.03;;;3.75;;
54454;SDS011;40364;52.270;10.546;2023-11-21T09:22:25;7.85;;;4.28;;
54454;SDS011;40364;52.270;10.546;2023-11-21T09:24:54;7.35;;;3.95;;
54454;SDS011;40364;52.270;10.546;2023-11-21T09:27:24;8.18;;;4.15;;
54454;SDS011;40364;52.270;10.546;2023-11-21T09:29:51;6.82;;;4.20;;
54454;SDS011;40364;52.270;10.546;2023-11-21T09:32:19;7.95;;;4.47;;
54454;SDS011;40364;52.270;10.546;2023-11-21T09:34:46;7.35;;;4.10;;
54454;SDS011;40364;52.270;10.546;2023-11-21T09:37:13;8.02;;;4.10;;
54454;SDS011;40364;52.270;10.546;2023-11-21T09:39:40;7.40;;;3.92;;
54454;SDS011;40364;52.270;10.546;2023-11-21T09:42:08;7.00;;;4.05;;
54454;SDS011;40364;52.270;10.546;2023-11-21T09:44:45;6.03;;;3.80;;
54454;SDS011;40364;52.270;10.546;2023-11-21T09:47:16;5.25;;;3.38;;
54454;SDS011;40364;52.270;10.546;2023-11-21T09:49:46;6.55;;;3.65;;
54454;SDS011;40364;52.270;10.546;2023-11-21T09:52:15;5.50;;;3.72;;
54454;SDS011;40364;52.270;10.546;2023-11-21T09:54:47;6.63;;;3.75;;
54454;SDS011;40364;52.270;10.546;2023-11-21T09:57:16;5.60;;;3.25;;
54454;SDS011;40364;52.270;10.546;2023-11-21T09:59:45;8.18;;;3.78;;
54454;SDS011;40364;52.270;10.546;2023-11-21T10:02:15;6.93;;;3.80;;
54454;SDS011;40364;52.270;10.546;2023-11-21T10:04:43;7.88;;;4.03;;
54454;SDS011;40364;52.270;10.546;2023-11-21T10:07:10;7.68;;;4.32;;
54454;SDS011;40364;52.270;10.546;2023-11-21T10:09:40;7.10;;;4.28;;
54454;SDS011;40364;52.270;10.546;2023-11-21T10:12:07;7.70;;;4.50;;
54454;SDS011;40364;52.270;10.546;2023-11-21T10:14:37;10.23;;;5.22;;
54454;SDS011;40364;52.270;10.546;2023-11-21T10:17:10;7.55;;;3.97;;
54454;SDS011;40364;52.270;10.546;2023-11-21T10:19:39;8.18;;;4.68;;
54454;SDS011;40364;52.270;10.546;2023-11-21T10:22:06;8.45;;;4.13;;
54454;SDS011;40364;52.270;10.546;2023-11-21T10:24:33;7.25;;;3.85;;
54454;SDS011;40364;52.270;10.546;2023-11-21T10:27:00;8.25;;;4.28;;
54454;SDS011;40364;52.270;10.546;2023-11-21T10:29:28;8.98;;;4.57;;
54454;SDS011;40364;52.270;10.546;2023-11-21T10:31:55;6.40;;;4.15;;
54454;SDS011;40364;52.270;10.546;2023-11-21T10:34:25;8.52;;;4.40;;
54454;SDS011;40364;52.270;10.546;2023-11-21T10:36:53;8.95;;;4.60;;
54454;SDS011;40364;52.270;10.546;2023-11-21T10:39:23;6.65;;;3.83;;
54454;SDS011;40364;52.270;10.546;2023-11-21T10:41:54;8.95;;;4.28;;
54454;SDS011;40364;52.270;10.546;2023-11-21T10:44:21;7.93;;;3.78;;
54454;SDS011;40364;52.270;10.546;2023-11-21T10:46:49;8.10;;;4.20;;
54454;SDS011;40364;52.270;10.546;2023-11-21T10:49:17;8.90;;;4.20;;
54454;SDS011;40364;52.270;10.546;2023-11-21T10:51:46;6.00;;;3.88;;
54454;SDS011;40364;52.270;10.546;2023-11-21T10:54:16;7.78;;;4.07;;
54454;SDS011;40364;52.270;10.546;2023-11-21T10:56:44;7.45;;;3.85;;
54454;SDS011;40364;52.270;10.546;2023-11-21T10:59:12;7.15;;;4.28;;
54454;SDS011;40364;52.270;10.546;2023-11-21T11:01:40;7.95;;;4.30;;
54454;SDS011;40364;52.270;10.546;2023-11-21T11:04:09;8.40;;;3.97;;
54454;SDS011;40364;52.270;10.546;2023-11-21T11:06:41;7.80;;;3.83;;
54454;SDS011;40364;52.270;10.546;2023-11-21T11:09:10;7.65;;;4.22;;
54454;SDS011;40364;52.270;10.546;2023-11-21T11:11:40;11.38;;;4.18;;
54454;SDS011;40364;52.270;10.546;2023-11-21T11:14:09;7.63;;;4.00;;
54454;SDS011;40364;52.270;10.546;2023-11-21T11:16:38;6.90;;;4.10;;
54454;SDS011;40364;52.270;10.546;2023-11-21T11:19:06;7.22;;;4.25;;
54454;SDS011;40364;52.270;10.546;2023-11-21T11:21:36;6.18;;;3.70;;
54454;SDS011;40364;52.270;10.546;2023-11-21T11:24:16;8.23;;;4.15;;
54454;SDS011;40364;52.270;10.546;2023-11-21T11:26:56;9.88;;;4.15;;
54454;SDS011;40364;52.270;10.546;2023-11-21T11:29:30;6.53;;;4.15;;
54454;SDS011;40364;52.270;10.546;2023-11-21T11:32:08;5.38;;;3.70;;
54454;SDS011;40364;52.270;10.546;2023-11-21T11:34:44;6.68;;;3.95;;
54454;SDS011;40364;52.270;10.546;2023-11-21T11:37:14;6.75;;;4.10;;
54454;SDS011;40364;52.270;10.546;2023-11-21T11:39:43;7.85;;;3.80;;
54454;SDS011;40364;52.270;10.546;2023-11-21T11:42:11;6.88;;;4.35;;
54454;SDS011;40364;52.270;10.546;2023-11-21T11:44:46;6.97;;;3.72;;
54454;SDS011;40364;52.270;10.546;2023-11-21T11:47:16;5.97;;;3.60;;
54454;SDS011;40364;52.270;10.546;2023-11-21T11:50:03;7.95;;;3.83;;
54454;SDS011;40364;52.270;10.546;2023-11-21T11:52:37;7.38;;;4.15;;
54454;SDS011;40364;52.270;10.546;2023-11-21T11:55:07;5.88;;;3.53;;
54454;SDS011;40364;52.270;10.546;2023-11-21T11:57:38;5.68;;;3.53;;
54454;SDS011;40364;52.270;10.546;2023-11-21T12:00:12;5.60;;;3.67;;
54454;SDS011;40364;52.270;10.546;2023-11-21T12:02:45;6.15;;;3.92;;
54454;SDS011;40364;52.270;10.546;2023-11-21T12:05:13;8.05;;;3.50;;
54454;SDS011;40364;52.270;10.546;2023-11-21T12:07:45;6.45;;;3.92;;
54454;SDS011;40364;52.270;10.546;2023-11-21T12:10:15;6.63;;;3.75;;
54454;SDS011;40364;52.270;10.546;2023-11-21T12:12:55;5.78;;;3.35;;
54454;SDS011;40364;52.270;10.546;2023-11-21T12:15:24;5.80;;;3.25;;
54454;SDS011;40364;52.270;10.546;2023-11-21T12:17:55;5.15;;;3.20;;
54454;SDS011;40364;52.270;10.546;2023-11-21T12:20:22;4.93;;;3.00;;
54454;SDS011;40364;52.270;10.546;2023-11-21T12:22:50;5.38;;;2.75;;
54454;SDS011;40364;52.270;10.546;2023-11-21T12:25:20;5.32;;;3.30;;
54454;SDS011;40364;52.270;10.546;2023-11-21T12:27:49;6.63;;;3.55;;
54454;SDS011;40364;52.270;10.546;2023-11-21T12:30:17;5.53;;;3.08;;
54454;SDS011;40364;52.270;10.546;2023-11-21T12:32:47;5.50;;;3.20;;
54454;SDS011;40364;52.270;10.546;2023-11-21T12:35:15;6.25;;;3.58;;
54454;SDS011;40364;52.270;10.546;2023-11-21T12:37:44;5.63;;;2.92;;
54454;SDS011;40364;52.270;10.546;2023-11-21T12:40:12;8.38;;;3.38;;
54454;SDS011;40364;52.270;10.546;2023-11-21T12:42:42;4.97;;;2.72;;
54454;SDS011;40364;52.270;10.546;2023-11-21T12:45:15;8.02;;;3.10;;
54454;SDS011;40364;52.270;10.546;2023-11-21T12:47:46;4.13;;;2.58;;
54454;SDS011;40364;52.270;10.546;2023-11-21T12:50:14;5.40;;;2.80;;
54454;SDS011;40364;52.270;10.546;2023-11-21T12:52:42;4.25;;;2.42;;
54454;SDS011;40364;52.270;10.546;2023-11-21T12:55:16;3.92;;;2.60;;
54454;SDS011;40364;52.270;10.546;2023-11-21T12:57:45;4.85;;;2.75;;
54454;SDS011;40364;52.270;10.546;2023-11-21T13:00:15;6.70;;;2.88;;
54454;SDS011;40364;52.270;10.546;2023-11-21T13:02:52;4.80;;;2.65;;
54454;SDS011;40364;52.270;10.546;2023-11-21T13:05:25;4.82;;;3.00;;
54454;SDS011;40364;52.270;10.546;2023-11-21T13:07:53;5.43;;;3.03;;
54454;SDS011;40364;52.270;10.546;2023-11-21T13:10:23;4.53;;;2.45;;
54454;SDS011;40364;52.270;10.546;2023-11-21T13:12:53;4.60;;;2.40;;
54454;SDS011;40364;52.270;10.546;2023-11-21T13:15:23;6.00;;;2.53;;
54454;SDS011;40364;52.270;10.546;2023-11-21T13:17:50;4.47;;;2.95;;
54454;SDS011;40364;52.270;10.546;2023-11-21T13:20:18;2.75;;;2.13;;
54454;SDS011;40364;52.270;10.546;2023-11-21T13:22:46;2.78;;;2.20;;
54454;SDS011;40364;52.270;10.546;2023-11-21T13:25:15;4.22;;;2.20;;
54454;SDS011;40364;52.270;10.546;2023-11-21T13:27:43;7.82;;;2.58;;
54454;SDS011;40364;52.270;10.546;2023-11-21T13:30:12;4.25;;;2.45;;
54454;SDS011;40364;52.270;10.546;2023-11-21T13:32:43;3.65;;;2.20;;
54454;SDS011;40364;52.270;10.546;2023-11-21T13:35:11;5.85;;;2.78;;
54454;SDS011;40364;52.270;10.546;2023-11-21T13:37:46;4.95;;;2.45;;
54454;SDS011;40364;52.270;10.546;2023-11-21T13:40:19;3.78;;;2.13;;
54454;SDS011;40364;52.270;10.546;2023-11-21T13:42:48;4.40;;;2.65;;
54454;SDS011;40364;52.270;10.546;2023-11-21T13:45:20;3.35;;;2.35;;
54454;SDS011;40364;52.270;10.546;2023-11-21T13:47:49;3.95;;;2.38;;
54454;SDS011;40364;52.270;10.546;2023-11-21T13:50:23;5.80;;;2.50;;
54454;SDS011;40364;52.270;10.546;2023-11-21T13:52:55;5.20;;;2.30;;
54454;SDS011;40364;52.270;10.546;2023-11-21T13:55:23;5.57;;;2.30;;
54454;SDS011;40364;52.270;10.546;2023-11-21T13:57:50;5.90;;;2.55;;
54454;SDS011;40364;52.270;10.546;2023-11-21T14:00:18;4.55;;;2.92;;
54454;SDS011;40364;52.270;10.546;2023-11-21T14:03:02;7.35;;;2.67;;
54454;SDS011;40364;52.270;10.546;2023-11-21T14:05:34;3.38;;;2.35;;
54454;SDS011;40364;52.270;10.546;2023-11-21T14:08:04;7.13;;;2.50;;
54454;SDS011;40364;52.270;10.546;2023-11-21T14:10:31;10.32;;;3.10;;
54454;SDS011;40364;52.270;10.546;2023-11-21T14:13:05;3.67;;;2.53;;
54454;SDS011;40364;52.270;10.546;2023-11-21T14:15:34;6.18;;;2.63;;
54454;SDS011;40364;52.270;10.546;2023-11-21T14:18:06;3.50;;;2.15;;
54454;SDS011;40364;52.270;10.546;2023-11-21T14:20:36;4.55;;;2.80;;
54454;SDS011;40364;52.270;10.546;2023-11-21T14:23:03;4.03;;;2.60;;
54454;SDS011;40364;52.270;10.546;2023-11-21T14:25:31;5.10;;;2.55;;
54454;SDS011;40364;52.270;10.546;2023-11-21T14:27:58;5.68;;;2.70;;
54454;SDS011;40364;52.270;10.546;2023-11-21T14:30:25;5.03;;;2.88;;
54454;SDS011;40364;52.270;10.546;2023-11-21T14:32:55;7.45;;;2.92;;
54454;SDS011;40364;52.270;10.546;2023-11-21T14:35:21;5.32;;;3.17;;